FW0939 Weather Reports


time (UTC)temp
C
wind
direction
speed
KPH
gust
KPH
rain 1hr
cm
rain 24hr
cm
rain mn
cm
humidity
%
barometer
mb
20200229080033 1 297 0.0 0.0 0.00 0.00 0.00 52 1031.4
20200229070035 3 297 0.0 0.0 0.00 0.00 0.00 46 1032.8
20200229060137 1 296 0.0 0.0 0.00 0.00 0.00 52 1033.6
20200229050036 1 300 0.0 0.0 0.00 0.00 0.00 50 1033.4
20200229040026 3 300 0.0 0.0 0.00 0.00 0.00 43 1033.3
20200229030117 3 298 0.0 0.0 0.00 0.00 0.00 41 1033.1
20200229020802 6 323 0.0 4.8 0.00 0.00 0.00 37 1032.6
20200229010052 8 96 0.0 6.4 0.00 0.00 0.00 29 1032.8
20200229000029 13 171 9.7 17.7 0.00 0.00 0.00 21 1032.2
20200228230230 16 148 11.3 24.1 0.00 0.00 0.00 16 1031.4
20200228220055 17 218 12.9 20.9 0.00 0.00 0.00 19 1030.9
20200228212443 17 226 1.6 17.7 0.00 0.00 0.00 19 1031.2
20200228200907 17 184 11.3 22.5 0.00 0.00 0.00 16 1031.6
20200228190054 17 128 8.0 19.3 0.00 0.00 0.00 19 1032.5
20200228180049 16 130 8.0 22.5 0.00 0.00 0.00 19 1033.9
20200228170042 13 153 8.0 19.3 0.00 0.00 0.00 21 1034.8
20200228160054 11 161 0.0 0.0 0.00 0.00 0.00 32 1035.3
20200228150035 6 211 0.0 0.0 0.00 0.00 0.00 40 1035.5
20200228140253 0 211 0.0 0.0 0.00 0.00 0.00 57 1034.1
20200228130033 -2 211 0.0 0.0 0.00 0.00 0.00 54 1032.8
20200228090104 -1 207 0.0 0.0 0.00 0.00 0.00 50 1031.5